Delaware County Johnson Field
KMIE : now visible

Airfield :











YOU CAN JOIN US ON...

 
LOGIN :

Register | Disclaimer

   EN    FR    IT 

 









Legend :    VFR   Marginal VFR   IFR   Intensive IFR   Very Intensive IFR
Visi :
Ceiling :
>= 8 km
>= 3000ft
5 to 8 km
1000 to 3000 ft
1500m to 5 km
500 to 1000 ft
800 to 1500m
200 to 500 ft
< 800m
< 200 ft
Symbols :   Thunderstorms  Fog  Heavy snow  Heavy precipitations  Wind > 20 kt







- Airport Elevation : 937 ft
- IATA code : MIE


KMIE - Delaware County Johnson Field

CURRENT METAR :
  • 191619Z 02013KT 7SM OVC011 08/05 A2967 RMK AO2 CIG 006V014 T00780050

EXPIRED METARs :
  • 191608Z 01016KT 4SM HZ BKN008 OVC013 08/05 A2966 RMK AO2 CIG 006V011 T00780050
  • 191553Z 02013KT 7SM OVC011 08/06 A2966 RMK AO2 RAB37E51 SLP041 P0000 T00780056
  • 191453Z 01014KT 10SM OVC009 07/05 A2965 RMK AO2 SLP038 60000 T00720050 51009
  • 191353Z 01013KT 10SM OVC009 07/05 A2964 RMK AO2 RAE23 CIG 006V012 SLP036 P0000 T00720050

TAF N/A
KZID FIR / North America



MET'MAP, your aeronautical weather chart ! - Copyright ORBIFLY December 2007 - Disclaimer

ORBIFLY MET'MAP TEAM :

Programming & Development : Alexandra Zaïnal
Concept & Development : Baudouin d'Aumeries
Co-Development & Prog : Marc-Olivier Méhu
Technical & hardware support : Manuel Goepfert

Contact : metmap@orbifly.com




SOURCES & CREDITS :

   NOAA       Earth
Advisory